Ana Sayfa
METAR-TAF:

METAR-TAF

Havaalanları :

Beslan Havalimanı

Vladikavkaz, Rusya

Enlem: 43-12-18N, Boylam: 044-36-24E, yükseklik: 510 m

Güncel hava durumu gözlemi

Rapor saat 06:00 UTC de 47 dakika önce yapıldı.
Rüzgar güneydan 4 kt
Sıcaklık 4°C
Nem 87%
Basınç 1021 hPa
Görüş mesafesi 10 km veya daha fazla
2200 ft yükseklikte çok bulutlu

METAR: URMO 230600Z 19002MPS 9999 OVC022 04/02 Q1021 R09/110060 NOSIG RMK QFE722/0962

Saat: 09:47 (06:47 UTC)

Tahmin

Rapor saat 05:00 UTC de 1 saat ve 47 dakika önce yapıldı.
Ayın 23'si saat 06 UTC'den ayın 23'si saat 15 UTC'ye kadar geçerli Tahmin
Rüzgar batıdan 6 kt ve 16 kt'a kadar ani rüzgarlar
Görüş mesafesi 10 km veya daha fazla
1500 ft yükseklikte çok bulutlu
Geçici
ayın 23'si saat 06 UTC'den ayın 23'si saat 12 UTC'ye kadar
Rüzgar değişken yönden 2 kt
Görüş mesafesi: 3100 m
1100 ft yükseklikte çok bulutlu
hafif yağmur, Pus

TAF: URMO 230500Z 2306/2315 28003G08MPS 9999 OVC015 TEMPO 2306/2312 VRB01MPS 3100 -RA BR OVC011

4.000'den fazla havaalanı için hava durumu gözlemleri ve tahminleri (METAR ve TAF raporları).

Kullanılabilir istasyonlar harita üzerinde sarı ve kırmızı noktalarla gösterilir.

İstasyonun adını görmek için fareyi noktanın üzerinde gezdirin.

Sonrasında hava gözlem ve tahminlerini görmek için tıklayın.

Haritayı değiştirmek için: yaklaştırmak için siyah artı işaretli yeşil düğmeye ve uzaklaştırmak için de eksi işaretli düğmeye hızla tıklayın; bitişik haritalar için yeşil okları kullanın.


METAR-TAF: